createdAt,value
2022-09-05T00:02:09.197Z,18.73
2022-09-05T00:04:50.168Z,18.70
2022-09-05T00:07:37.390Z,18.68
2022-09-05T00:10:26.470Z,18.62
2022-09-05T00:13:10.890Z,18.59
2022-09-05T00:15:58.399Z,18.55
2022-09-05T00:24:07.571Z,18.51
2022-09-05T00:24:24.865Z,18.48
2022-09-05T00:27:59.838Z,18.37
2022-09-05T00:31:50.747Z,18.37
2022-09-05T00:33:37.613Z,18.37
2022-09-05T00:36:27.197Z,18.33
2022-09-05T00:39:01.885Z,18.32
2022-09-05T00:41:34.338Z,18.32
2022-09-05T00:44:05.458Z,18.31
2022-09-05T00:46:38.142Z,18.30
2022-09-05T00:49:21.396Z,18.28
2022-09-05T00:51:56.437Z,18.27
2022-09-05T00:54:53.123Z,18.22
2022-09-05T00:57:56.900Z,18.19
2022-09-05T01:00:35.673Z,18.19
2022-09-05T01:03:37.678Z,18.16
2022-09-05T01:06:18.624Z,18.16
2022-09-05T01:09:23.547Z,18.15
2022-09-05T01:12:10.776Z,18.13
2022-09-05T01:15:02.312Z,18.12
2022-09-05T01:17:49.875Z,18.11
2022-09-05T01:20:38.255Z,18.08
2022-09-05T01:23:33.946Z,18.07
2022-09-05T01:26:41.704Z,18.05
2022-09-05T01:29:25.803Z,18.04
2022-09-05T01:32:15.543Z,18.01
2022-09-05T01:35:02.506Z,17.97
2022-09-05T01:37:41.722Z,17.95
2022-09-05T01:40:21.341Z,17.91
2022-09-05T01:43:10.375Z,17.83
2022-09-05T01:45:51.201Z,17.77
2022-09-05T01:48:37.231Z,17.72
2022-09-05T01:51:28.621Z,17.66
2022-09-05T01:54:23.996Z,17.62
2022-09-05T01:57:09.943Z,17.58
2022-09-05T01:59:48.101Z,17.56
2022-09-05T02:02:50.299Z,17.51
2022-09-05T02:05:57.257Z,17.46
2022-09-05T02:08:55.051Z,17.44
2022-09-05T02:11:46.351Z,17.41
2022-09-05T02:14:34.130Z,17.33
2022-09-05T02:17:23.723Z,17.29
2022-09-05T02:20:25.044Z,17.23
2022-09-05T02:23:27.364Z,17.18
2022-09-05T02:26:04.344Z,17.16
2022-09-05T02:28:47.039Z,17.13
2022-09-05T02:31:22.190Z,17.11
2022-09-05T02:34:01.891Z,17.07
2022-09-05T02:36:44.241Z,17.04
2022-09-05T02:45:00.596Z,17.03
2022-09-05T02:45:16.500Z,17.02
2022-09-05T02:45:29.054Z,16.99
2022-09-05T02:48:15.574Z,16.98
2022-09-05T02:57:24.834Z,16.96
2022-09-05T02:57:28.900Z,16.94
2022-09-05T02:57:38.790Z,16.96
2022-09-05T03:00:21.120Z,16.90
2022-09-05T03:03:21.100Z,16.89
2022-09-05T03:05:57.896Z,16.91
2022-09-05T03:08:52.247Z,16.88
2022-09-05T03:12:28.496Z,16.86
2022-09-05T03:15:56.204Z,16.82
2022-09-05T03:19:37.784Z,16.79
2022-09-05T03:23:21.003Z,16.78
2022-09-05T03:26:38.806Z,16.77
2022-09-05T03:29:37.476Z,16.78
2022-09-05T03:32:40.348Z,16.78
2022-09-05T03:36:08.803Z,16.79
2022-09-05T03:39:33.416Z,16.81
2022-09-05T03:42:53.544Z,16.82
2022-09-05T03:45:54.399Z,16.83
2022-09-05T03:48:48.888Z,16.84
2022-09-05T03:57:07.107Z,16.85
2022-09-05T03:57:11.564Z,16.84
2022-09-05T03:58:56.094Z,16.85
2022-09-05T04:02:35.299Z,16.84
2022-09-05T04:08:19.116Z,16.81
2022-09-05T04:08:27.565Z,16.81
2022-09-05T04:10:28.554Z,16.76
2022-09-05T04:13:04.142Z,16.71
2022-09-05T04:15:42.352Z,16.67
2022-09-05T04:18:34.834Z,16.62
2022-09-05T04:21:11.223Z,16.60
2022-09-05T04:23:53.753Z,16.53
2022-09-05T04:26:51.111Z,16.48
2022-09-05T04:29:28.985Z,16.41
2022-09-05T04:32:18.853Z,16.33
2022-09-05T04:35:23.884Z,16.22
2022-09-05T04:37:59.384Z,16.22
2022-09-05T04:40:40.285Z,16.21
2022-09-05T04:43:15.045Z,16.22
2022-09-05T04:45:46.432Z,16.17
2022-09-05T04:48:21.864Z,16.20
2022-09-05T04:51:12.863Z,16.21
2022-09-05T04:54:12.871Z,16.24
2022-09-05T04:56:47.192Z,16.28
2022-09-05T05:00:54.306Z,16.31
2022-09-05T05:06:01.410Z,16.33
2022-09-05T05:06:08.545Z,16.36
2022-09-05T05:08:13.030Z,16.40
2022-09-05T05:16:32.495Z,16.44
2022-09-05T05:17:58.850Z,16.45
2022-09-05T05:18:12.789Z,16.48
2022-09-05T05:19:35.426Z,16.50
2022-09-05T05:22:07.167Z,16.52
2022-09-05T05:24:45.485Z,16.53
2022-09-05T05:27:25.235Z,16.54
2022-09-05T05:30:01.517Z,16.58
2022-09-05T05:32:45.817Z,16.63
2022-09-05T05:35:19.756Z,16.69
2022-09-05T05:37:54.968Z,16.76
2022-09-05T05:40:31.597Z,16.84
2022-09-05T05:43:18.471Z,16.94
2022-09-05T05:45:47.253Z,17.01
2022-09-05T05:48:33.305Z,17.07
2022-09-05T05:52:00.675Z,17.16
2022-09-05T05:54:33.111Z,17.26
2022-09-05T05:57:48.323Z,17.37
2022-09-05T06:00:27.662Z,17.47
2022-09-05T06:04:09.458Z,17.54
2022-09-05T06:07:10.045Z,17.65
2022-09-05T06:14:53.093Z,17.75
2022-09-05T06:16:32.036Z,17.90
2022-09-05T06:20:03.310Z,17.94
2022-09-05T06:23:36.624Z,18.01
2022-09-05T06:26:45.707Z,18.12
2022-09-05T06:29:37.962Z,18.19
2022-09-05T06:32:28.321Z,18.29
2022-09-05T06:35:24.807Z,18.36
2022-09-05T06:38:10.592Z,18.49
2022-09-05T06:40:55.691Z,18.62
2022-09-05T06:43:37.253Z,18.73
2022-09-05T06:46:54.916Z,18.81
2022-09-05T06:49:30.251Z,18.91
2022-09-05T06:52:49.484Z,19.05
2022-09-05T06:55:57.024Z,19.21
2022-09-05T06:59:17.275Z,19.31
2022-09-05T07:02:00.151Z,19.58
2022-09-05T07:05:23.312Z,20.04
2022-09-05T07:07:45.651Z,20.62
2022-09-05T07:10:39.855Z,21.18
2022-09-05T07:13:16.372Z,21.75
2022-09-05T07:15:56.811Z,22.20
2022-09-05T07:18:34.898Z,22.52
2022-09-05T07:21:16.403Z,22.89
2022-09-05T07:24:06.450Z,23.33
2022-09-05T07:26:51.618Z,23.73
2022-09-05T07:29:27.668Z,23.85
2022-09-05T07:31:59.500Z,23.77
2022-09-05T07:34:31.432Z,23.83
2022-09-05T07:37:15.391Z,23.94
2022-09-05T07:39:51.303Z,23.96
2022-09-05T07:42:27.580Z,23.93
2022-09-05T07:45:02.412Z,24.22
2022-09-05T07:47:34.374Z,24.65
2022-09-05T07:52:10.703Z,25.09
2022-09-05T07:56:53.303Z,25.59
2022-09-05T07:56:58.644Z,26.08
2022-09-05T07:58:52.483Z,26.62
2022-09-05T08:01:22.907Z,27.07
2022-09-05T08:03:57.268Z,27.60
2022-09-05T08:07:11.913Z,28.06
2022-09-05T08:10:06.026Z,28.49
2022-09-05T08:12:27.918Z,28.95
2022-09-05T08:15:13.998Z,29.31
2022-09-05T08:17:58.839Z,29.64
2022-09-05T08:20:37.065Z,29.89
2022-09-05T08:23:21.026Z,30.15
2022-09-05T08:25:59.675Z,30.41
2022-09-05T08:28:39.173Z,30.69
2022-09-05T08:31:14.519Z,30.98
2022-09-05T08:33:43.427Z,31.20
2022-09-05T08:36:24.146Z,31.33
2022-09-05T08:38:54.226Z,31.56
2022-09-05T08:41:50.300Z,31.78
2022-09-05T08:46:41.710Z,31.92
2022-09-05T08:47:33.009Z,31.96
2022-09-05T08:50:51.728Z,32.04
2022-09-05T08:53:54.228Z,32.35
2022-09-05T08:57:11.852Z,32.66
2022-09-05T09:00:24.734Z,32.95
2022-09-05T09:03:42.913Z,33.24
2022-09-05T09:07:48.007Z,33.41
2022-09-05T09:11:01.850Z,33.54
2022-09-05T09:14:09.853Z,33.78
2022-09-05T09:17:41.850Z,33.87
2022-09-05T09:20:52.876Z,34.11
2022-09-05T09:24:03.841Z,34.15
2022-09-05T09:27:11.869Z,33.55
2022-09-05T09:30:05.989Z,32.84
2022-09-05T09:32:46.364Z,32.35
2022-09-05T09:35:24.793Z,31.75
2022-09-05T09:38:28.750Z,31.20
2022-09-05T09:41:34.223Z,30.64
2022-09-05T09:45:27.836Z,30.40
2022-09-05T09:48:47.310Z,30.31
2022-09-05T09:51:44.765Z,29.86
2022-09-05T09:54:56.621Z,29.43
2022-09-05T09:57:57.629Z,28.93
2022-09-05T10:00:32.098Z,29.18
2022-09-05T10:03:32.433Z,30.03
2022-09-05T10:10:47.951Z,31.08
2022-09-05T10:11:44.008Z,31.98
2022-09-05T10:14:50.046Z,32.71
2022-09-05T10:18:11.109Z,33.35
2022-09-05T10:21:17.984Z,33.91
2022-09-05T10:24:42.973Z,34.39
2022-09-05T10:27:26.344Z,34.64
2022-09-05T10:30:12.227Z,35.00
2022-09-05T10:35:05.290Z,35.30
2022-09-05T10:36:12.890Z,35.56
2022-09-05T10:39:13.482Z,35.45
2022-09-05T10:42:04.871Z,35.50
2022-09-05T10:44:52.887Z,35.58
2022-09-05T10:47:46.880Z,35.72
2022-09-05T10:50:31.371Z,35.86
2022-09-05T10:53:28.468Z,35.67
2022-09-05T10:56:14.764Z,35.38
2022-09-05T11:02:19.199Z,35.19
2022-09-05T11:02:29.326Z,35.14
2022-09-05T11:05:05.664Z,35.04
2022-09-05T11:07:43.624Z,35.20
2022-09-05T11:10:20.276Z,35.28
2022-09-05T11:13:14.308Z,35.16
2022-09-05T11:16:13.694Z,34.84
2022-09-05T11:19:04.702Z,34.98
2022-09-05T11:22:07.422Z,35.24
2022-09-05T11:24:52.440Z,35.48
2022-09-05T11:27:34.005Z,35.73
2022-09-05T11:30:08.152Z,35.88
2022-09-05T11:39:19.252Z,35.93
2022-09-05T11:39:47.014Z,36.06
2022-09-05T11:40:29.297Z,35.97
2022-09-05T11:43:24.340Z,35.99
2022-09-05T11:46:19.584Z,36.10
2022-09-05T11:49:37.113Z,36.51
2022-09-05T11:53:27.916Z,36.86
2022-09-05T11:56:18.927Z,36.91
2022-09-05T11:59:33.512Z,36.82
2022-09-05T12:02:34.713Z,36.79
2022-09-05T12:05:49.031Z,36.70
2022-09-05T12:08:35.417Z,36.51
2022-09-05T12:11:21.435Z,36.33
2022-09-05T12:14:21.389Z,36.21
2022-09-05T12:17:35.396Z,36.10
2022-09-05T12:20:24.918Z,36.16
2022-09-05T12:23:31.167Z,36.20
2022-09-05T12:27:40.715Z,36.40
2022-09-05T12:29:29.001Z,36.50
2022-09-05T12:33:45.526Z,36.65
2022-09-05T12:36:08.457Z,36.64
2022-09-05T12:40:53.748Z,36.59
2022-09-05T12:41:36.241Z,36.47
2022-09-05T12:44:39.908Z,36.57
2022-09-05T12:46:56.170Z,37.02
2022-09-05T12:49:36.096Z,37.45
2022-09-05T12:52:10.600Z,37.32
2022-09-05T12:54:51.027Z,37.29
2022-09-05T13:01:23.387Z,37.26
2022-09-05T13:03:12.781Z,37.27
2022-09-05T13:03:28.126Z,37.47
2022-09-05T13:06:24.801Z,37.50
2022-09-05T13:09:02.251Z,37.44
2022-09-05T13:14:55.593Z,37.38
2022-09-05T13:15:02.403Z,37.55
2022-09-05T13:17:44.361Z,37.78
2022-09-05T13:20:20.159Z,37.95
2022-09-05T13:22:50.946Z,38.18
2022-09-05T13:25:26.954Z,38.19
2022-09-05T13:28:03.726Z,38.20
2022-09-05T13:37:06.184Z,38.19
2022-09-05T13:38:02.434Z,38.16
2022-09-05T13:38:03.701Z,37.87
2022-09-05T13:39:22.863Z,37.76
2022-09-05T13:41:59.460Z,37.82
2022-09-05T13:44:30.023Z,37.65
2022-09-05T13:47:14.746Z,37.50
2022-09-05T13:50:08.294Z,37.74
2022-09-05T13:52:41.585Z,37.75
2022-09-05T13:55:22.953Z,37.84
2022-09-05T13:57:57.435Z,38.02
2022-09-05T14:01:11.240Z,38.33
2022-09-05T14:08:02.696Z,37.96
2022-09-05T14:11:12.305Z,37.77
2022-09-05T14:14:11.308Z,37.37
2022-09-05T14:16:53.520Z,37.10
2022-09-05T14:19:43.459Z,37.01
2022-09-05T14:22:37.752Z,37.13
2022-09-05T14:25:15.175Z,37.14
2022-09-05T14:27:47.216Z,37.27
2022-09-05T14:32:23.652Z,37.61
2022-09-05T14:37:40.127Z,37.71
2022-09-05T14:37:51.595Z,37.88
2022-09-05T14:40:30.511Z,38.21
2022-09-05T14:43:42.600Z,38.39
2022-09-05T14:46:57.156Z,38.46
2022-09-05T14:50:03.685Z,38.74
2022-09-05T14:52:43.406Z,39.11
2022-09-05T15:02:48.283Z,38.62
2022-09-05T15:02:48.459Z,39.04
2022-09-05T15:06:39.625Z,37.91
2022-09-05T15:12:17.198Z,37.81
2022-09-05T15:12:31.211Z,37.71
2022-09-05T15:15:22.606Z,37.74
2022-09-05T15:17:57.045Z,37.84
2022-09-05T15:20:32.557Z,37.81
2022-09-05T15:23:11.233Z,37.73
2022-09-05T15:25:48.762Z,37.77
2022-09-05T15:28:32.048Z,37.76
2022-09-05T15:31:05.000Z,37.64
2022-09-05T15:33:33.910Z,37.65
2022-09-05T15:36:04.351Z,37.73
2022-09-05T15:38:54.993Z,37.66
2022-09-05T15:41:26.580Z,37.64
2022-09-05T15:44:01.789Z,37.48
2022-09-05T15:46:42.415Z,37.15
2022-09-05T15:49:23.090Z,36.78
2022-09-05T15:51:55.730Z,36.10
2022-09-05T15:54:38.568Z,35.55
2022-09-05T15:57:17.639Z,35.39
2022-09-05T15:59:52.983Z,35.32
2022-09-05T16:02:25.883Z,35.33
2022-09-05T16:10:27.616Z,35.40
2022-09-05T16:10:45.940Z,35.55
2022-09-05T16:14:27.549Z,35.80
2022-09-05T16:23:18.675Z,35.87
2022-09-05T16:23:24.300Z,35.88
2022-09-05T16:23:25.482Z,35.93
2022-09-05T16:26:06.260Z,35.85
2022-09-05T16:28:39.459Z,35.76
2022-09-05T16:31:19.325Z,35.63
2022-09-05T16:33:49.875Z,35.32
2022-09-05T16:36:23.544Z,34.89
2022-09-05T16:38:57.035Z,34.51
2022-09-05T16:41:41.264Z,34.20
2022-09-05T16:44:16.711Z,33.97
2022-09-05T16:47:06.752Z,33.76
2022-09-05T16:49:44.338Z,33.66
2022-09-05T16:52:17.952Z,33.56
2022-09-05T16:54:52.693Z,33.40
2022-09-05T16:57:25.589Z,33.23
2022-09-05T16:59:54.484Z,33.16
2022-09-05T17:02:29.756Z,33.07
2022-09-05T17:05:12.218Z,32.97
2022-09-05T17:08:07.190Z,32.86
2022-09-05T17:10:49.356Z,32.76
2022-09-05T17:13:51.114Z,32.61
2022-09-05T17:16:31.164Z,32.49
2022-09-05T17:19:02.617Z,32.32
2022-09-05T17:24:10.989Z,32.11
2022-09-05T17:29:19.687Z,31.89
2022-09-05T17:29:45.518Z,31.65
2022-09-05T17:33:02.732Z,31.16
2022-09-05T17:35:54.645Z,30.90
2022-09-05T17:38:59.843Z,30.57
2022-09-05T17:42:06.040Z,30.29
2022-09-05T17:44:53.060Z,30.06
2022-09-05T17:47:36.436Z,29.88
2022-09-05T17:50:17.821Z,29.62
2022-09-05T17:53:25.940Z,29.41
2022-09-05T17:56:33.348Z,29.18
2022-09-05T17:59:06.650Z,29.03
2022-09-05T18:01:37.314Z,28.88
2022-09-05T18:04:16.149Z,28.73
2022-09-05T18:07:00.462Z,28.58
2022-09-05T18:13:31.499Z,28.16
2022-09-05T18:16:12.464Z,27.96
2022-09-05T18:19:28.145Z,27.85
2022-09-05T18:21:53.013Z,27.68
2022-09-05T18:24:33.671Z,27.58
2022-09-05T18:27:47.440Z,27.44
2022-09-05T18:30:11.754Z,27.33
2022-09-05T18:32:45.236Z,27.22
2022-09-05T18:35:36.255Z,27.11
2022-09-05T18:38:50.955Z,26.98
2022-09-05T18:41:23.676Z,26.89
2022-09-05T18:44:12.374Z,26.78
2022-09-05T18:46:48.357Z,26.70
2022-09-05T18:50:21.525Z,26.61
2022-09-05T18:52:23.842Z,26.49
2022-09-05T18:56:08.884Z,26.39
2022-09-05T18:57:59.074Z,26.31
2022-09-05T19:00:44.688Z,26.24
2022-09-05T19:03:24.836Z,26.18
2022-09-05T19:06:34.798Z,26.12
2022-09-05T19:08:57.180Z,26.00
2022-09-05T19:11:36.073Z,25.87
2022-09-05T19:14:28.544Z,25.76
2022-09-05T19:17:08.821Z,25.63
2022-09-05T19:20:33.067Z,25.47
2022-09-05T19:23:11.811Z,25.39
2022-09-05T19:25:44.463Z,25.30
2022-09-05T19:36:44.248Z,25.22
2022-09-05T19:36:53.118Z,25.11
2022-09-05T19:37:13.088Z,24.95
2022-09-05T19:37:23.846Z,24.77
2022-09-05T19:43:39.081Z,24.58
2022-09-05T19:47:36.963Z,24.43
2022-09-05T19:47:43.040Z,24.29
2022-09-05T19:48:26.660Z,24.10
2022-09-05T19:50:57.012Z,23.97
2022-09-05T19:53:26.925Z,23.87
2022-09-05T19:55:55.485Z,23.78
2022-09-05T19:58:25.675Z,23.71
2022-09-05T20:01:05.826Z,23.62
2022-09-05T20:03:40.853Z,23.57
2022-09-05T20:06:29.728Z,23.53
2022-09-05T20:09:16.538Z,23.49
2022-09-05T20:11:49.894Z,23.48
2022-09-05T20:14:22.750Z,23.44
2022-09-05T20:16:57.096Z,23.40
2022-09-05T20:19:31.279Z,23.36
2022-09-05T20:22:12.832Z,23.33
2022-09-05T20:24:56.348Z,23.30
2022-09-05T20:27:29.784Z,23.28
2022-09-05T20:30:02.369Z,23.23
2022-09-05T20:32:39.479Z,23.15
2022-09-05T20:40:17.927Z,23.07
2022-09-05T20:43:16.317Z,23.00
2022-09-05T20:43:17.839Z,22.95
2022-09-05T20:44:22.342Z,22.89
2022-09-05T20:50:12.977Z,22.87
2022-09-05T20:54:16.969Z,22.77
2022-09-05T20:54:28.945Z,22.82
2022-09-05T20:55:42.443Z,22.73
2022-09-05T20:58:16.282Z,22.72
2022-09-05T21:01:20.079Z,22.72
2022-09-05T21:03:45.578Z,22.70
2022-09-05T21:06:23.472Z,22.70
2022-09-05T21:08:54.698Z,22.70
2022-09-05T21:11:32.600Z,22.67
2022-09-05T21:14:05.780Z,22.63
2022-09-05T21:16:40.722Z,22.60
2022-09-05T21:19:24.659Z,22.56
2022-09-05T21:22:09.718Z,22.54
2022-09-05T21:24:38.320Z,22.52
2022-09-05T21:27:18.250Z,22.50
2022-09-05T21:29:50.937Z,22.49
2022-09-05T21:32:36.250Z,22.47
2022-09-05T21:35:17.387Z,22.43
2022-09-05T21:37:57.588Z,22.38
2022-09-05T21:40:26.021Z,22.34
2022-09-05T21:46:04.617Z,22.34
2022-09-05T21:47:43.207Z,22.30
2022-09-05T21:48:39.136Z,22.28
2022-09-05T21:51:10.224Z,22.27
2022-09-05T21:58:55.242Z,22.23
2022-09-05T21:59:16.303Z,22.17
2022-09-05T21:59:46.111Z,22.14
2022-09-05T22:02:17.687Z,22.13
2022-09-05T22:04:47.091Z,22.09
2022-09-05T22:07:31.913Z,22.06
2022-09-05T22:10:03.175Z,22.03
2022-09-05T22:12:38.511Z,21.97
2022-09-05T22:15:26.830Z,21.91
2022-09-05T22:18:17.428Z,21.88
2022-09-05T22:21:01.316Z,21.85
2022-09-05T22:23:43.295Z,21.80
2022-09-05T22:26:12.263Z,21.80
2022-09-05T22:28:48.762Z,21.77
2022-09-05T22:31:17.342Z,21.75
2022-09-05T22:33:48.251Z,21.74
2022-09-05T22:36:19.830Z,21.73
2022-09-05T22:38:48.707Z,21.71
2022-09-05T22:41:17.301Z,21.70
2022-09-05T22:43:46.482Z,21.67
2022-09-05T22:46:15.445Z,21.67
2022-09-05T22:48:43.849Z,21.65
2022-09-05T22:51:13.837Z,21.63
2022-09-05T22:53:42.143Z,21.60
2022-09-05T22:56:11.199Z,21.58
2022-09-05T22:58:41.746Z,21.56
2022-09-05T23:01:10.960Z,21.54
2022-09-05T23:03:39.387Z,21.53
2022-09-05T23:06:10.651Z,21.52
2022-09-05T23:08:40.490Z,21.49
2022-09-05T23:11:09.813Z,21.50
2022-09-05T23:13:38.516Z,21.49
2022-09-05T23:16:07.756Z,21.49
2022-09-05T23:18:36.561Z,21.49
2022-09-05T23:21:06.739Z,21.48
2022-09-05T23:23:37.140Z,21.48
2022-09-05T23:26:10.504Z,21.47
2022-09-05T23:28:43.087Z,21.45
2022-09-05T23:31:13.324Z,21.42
2022-09-05T23:33:42.731Z,21.40
2022-09-05T23:36:13.753Z,21.38
2022-09-05T23:38:43.308Z,21.37
2022-09-05T23:41:15.611Z,21.36
2022-09-05T23:43:44.449Z,21.34
2022-09-05T23:46:13.176Z,21.32
2022-09-05T23:48:41.811Z,21.31
2022-09-05T23:51:12.946Z,21.30
2022-09-05T23:53:41.747Z,21.30
2022-09-05T23:56:12.528Z,21.27
2022-09-05T23:58:41.407Z,21.27
